sensor_id;sensor_type;location;lat;lon;timestamp;pressure;altitude;pressure_sealevel;temperature;humidity
55066;BME280;40964;42.114;24.220;2022-10-22T00:01:51;98743.78;;;7.54;79.61
55066;BME280;40964;42.114;24.220;2022-10-22T00:04:16;98737.28;;;7.50;79.46
55066;BME280;40964;42.114;24.220;2022-10-22T00:06:42;98730.25;;;7.50;79.09
55066;BME280;40964;42.114;24.220;2022-10-22T00:09:12;98725.19;;;7.49;79.84
55066;BME280;40964;42.114;24.220;2022-10-22T00:11:39;98717.53;;;7.47;80.06
55066;BME280;40964;42.114;24.220;2022-10-22T00:14:05;98719.84;;;7.42;80.96
55066;BME280;40964;42.114;24.220;2022-10-22T00:16:30;98715.94;;;7.38;81.67
55066;BME280;40964;42.114;24.220;2022-10-22T00:18:56;98718.38;;;7.39;81.78
55066;BME280;40964;42.114;24.220;2022-10-22T00:21:21;98723.63;;;7.39;81.61
55066;BME280;40964;42.114;24.220;2022-10-22T00:23:47;98723.13;;;7.36;81.74
55066;BME280;40964;42.114;24.220;2022-10-22T00:26:13;98729.25;;;7.28;82.56
55066;BME280;40964;42.114;24.220;2022-10-22T00:28:38;98723.03;;;7.29;82.25
55066;BME280;40964;42.114;24.220;2022-10-22T00:31:05;98721.69;;;7.33;82.35
55066;BME280;40964;42.114;24.220;2022-10-22T00:33:30;98723.78;;;7.38;82.55
55066;BME280;40964;42.114;24.220;2022-10-22T00:35:56;98717.41;;;7.40;81.61
55066;BME280;40964;42.114;24.220;2022-10-22T00:38:22;98713.97;;;7.40;81.71
55066;BME280;40964;42.114;24.220;2022-10-22T00:40:48;98723.00;;;7.37;81.57
55066;BME280;40964;42.114;24.220;2022-10-22T00:43:16;98723.31;;;7.34;81.77
55066;BME280;40964;42.114;24.220;2022-10-22T00:45:42;98724.31;;;7.33;81.71
55066;BME280;40964;42.114;24.220;2022-10-22T00:48:10;98731.66;;;7.38;81.23
55066;BME280;40964;42.114;24.220;2022-10-22T00:50:42;98716.16;;;7.28;81.33
55066;BME280;40964;42.114;24.220;2022-10-22T00:53:13;98731.34;;;7.33;81.58
55066;BME280;40964;42.114;24.220;2022-10-22T00:55:40;98733.50;;;7.29;81.85
55066;BME280;40964;42.114;24.220;2022-10-22T00:58:06;98730.22;;;7.27;82.07
55066;BME280;40964;42.114;24.220;2022-10-22T01:00:32;98729.53;;;7.33;81.88
55066;BME280;40964;42.114;24.220;2022-10-22T01:02:58;98719.13;;;7.25;82.23
55066;BME280;40964;42.114;24.220;2022-10-22T01:05:27;98722.72;;;7.24;82.85
55066;BME280;40964;42.114;24.220;2022-10-22T01:07:53;98714.50;;;7.27;82.65
55066;BME280;40964;42.114;24.220;2022-10-22T01:18:23;98706.78;;;7.34;82.78
55066;BME280;40964;42.114;24.220;2022-10-22T01:21:02;98711.56;;;7.30;83.38
55066;BME280;40964;42.114;24.220;2022-10-22T01:24:02;98714.59;;;7.19;83.72
55066;BME280;40964;42.114;24.220;2022-10-22T01:29:28;98715.88;;;6.92;84.75
55066;BME280;40964;42.114;24.220;2022-10-22T01:32:00;98710.28;;;6.95;85.23
55066;BME280;40964;42.114;24.220;2022-10-22T01:34:28;98711.72;;;6.98;85.40
55066;BME280;40964;42.114;24.220;2022-10-22T01:36:56;98719.22;;;7.01;85.22
55066;BME280;40964;42.114;24.220;2022-10-22T01:39:22;98717.69;;;7.15;84.51
55066;BME280;40964;42.114;24.220;2022-10-22T01:41:49;98717.03;;;7.21;84.12
55066;BME280;40964;42.114;24.220;2022-10-22T01:44:27;98702.97;;;7.22;83.57
55066;BME280;40964;42.114;24.220;2022-10-22T01:49:48;98704.72;;;7.29;83.24
55066;BME280;40964;42.114;24.220;2022-10-22T01:52:26;98693.09;;;7.32;83.42
55066;BME280;40964;42.114;24.220;2022-10-22T01:57:49;98692.78;;;7.27;83.28
55066;BME280;40964;42.114;24.220;2022-10-22T02:00:18;98687.91;;;7.24;83.27
55066;BME280;40964;42.114;24.220;2022-10-22T02:03:04;98683.84;;;7.21;82.90
55066;BME280;40964;42.114;24.220;2022-10-22T02:05:35;98688.94;;;7.15;83.68
55066;BME280;40964;42.114;24.220;2022-10-22T02:08:11;98682.25;;;7.12;84.18
55066;BME280;40964;42.114;24.220;2022-10-22T02:10:41;98689.09;;;7.13;84.19
55066;BME280;40964;42.114;24.220;2022-10-22T02:13:13;98689.09;;;7.13;83.93
55066;BME280;40964;42.114;24.220;2022-10-22T02:15:42;98701.88;;;7.08;84.55
55066;BME280;40964;42.114;24.220;2022-10-22T02:18:10;98687.91;;;6.93;84.84
55066;BME280;40964;42.114;24.220;2022-10-22T02:20:40;98691.03;;;6.88;85.11
55066;BME280;40964;42.114;24.220;2022-10-22T02:23:07;98693.91;;;7.01;84.84
55066;BME280;40964;42.114;24.220;2022-10-22T02:25:37;98687.69;;;7.02;84.66
55066;BME280;40964;42.114;24.220;2022-10-22T02:28:10;98685.78;;;6.88;85.03
55066;BME280;40964;42.114;24.220;2022-10-22T02:30:40;98683.88;;;6.74;85.67
55066;BME280;40964;42.114;24.220;2022-10-22T02:35:40;98678.34;;;6.77;84.50
55066;BME280;40964;42.114;24.220;2022-10-22T02:38:06;98683.56;;;6.77;84.39
55066;BME280;40964;42.114;24.220;2022-10-22T02:40:32;98674.41;;;6.73;84.04
55066;BME280;40964;42.114;24.220;2022-10-22T02:42:58;98684.72;;;6.74;83.86
55066;BME280;40964;42.114;24.220;2022-10-22T02:45:24;98687.84;;;6.70;83.77
55066;BME280;40964;42.114;24.220;2022-10-22T02:47:50;98688.03;;;6.60;84.86
55066;BME280;40964;42.114;24.220;2022-10-22T02:50:16;98690.53;;;6.45;85.74
55066;BME280;40964;42.114;24.220;2022-10-22T02:52:41;98693.81;;;6.47;85.57
55066;BME280;40964;42.114;24.220;2022-10-22T02:55:08;98691.03;;;6.49;85.37
55066;BME280;40964;42.114;24.220;2022-10-22T02:57:34;98689.69;;;6.53;85.41
55066;BME280;40964;42.114;24.220;2022-10-22T02:59:59;98690.00;;;6.58;84.77
55066;BME280;40964;42.114;24.220;2022-10-22T03:02:25;98685.59;;;6.59;84.55
55066;BME280;40964;42.114;24.220;2022-10-22T03:04:50;98681.00;;;6.61;84.52
55066;BME280;40964;42.114;24.220;2022-10-22T03:07:16;98676.09;;;6.66;84.72
55066;BME280;40964;42.114;24.220;2022-10-22T03:09:41;98665.47;;;6.67;84.63
55066;BME280;40964;42.114;24.220;2022-10-22T03:12:07;98669.22;;;6.65;84.55
55066;BME280;40964;42.114;24.220;2022-10-22T03:14:33;98666.97;;;6.62;83.85
55066;BME280;40964;42.114;24.220;2022-10-22T03:16:59;98654.44;;;6.49;83.45
55066;BME280;40964;42.114;24.220;2022-10-22T03:19:24;98672.72;;;6.49;83.32
55066;BME280;40964;42.114;24.220;2022-10-22T03:22:00;98669.94;;;6.50;83.40
55066;BME280;40964;42.114;24.220;2022-10-22T03:24:30;98680.88;;;6.46;83.50
55066;BME280;40964;42.114;24.220;2022-10-22T03:26:58;98682.03;;;6.43;84.11
55066;BME280;40964;42.114;24.220;2022-10-22T03:29:25;98690.41;;;6.39;84.11
55066;BME280;40964;42.114;24.220;2022-10-22T03:31:51;98699.19;;;6.38;84.37
55066;BME280;40964;42.114;24.220;2022-10-22T03:34:17;98694.50;;;6.33;84.38
55066;BME280;40964;42.114;24.220;2022-10-22T03:36:43;98697.28;;;6.32;84.05
55066;BME280;40964;42.114;24.220;2022-10-22T03:39:12;98703.66;;;6.29;83.17
55066;BME280;40964;42.114;24.220;2022-10-22T03:41:39;98701.69;;;6.23;83.85
55066;BME280;40964;42.114;24.220;2022-10-22T03:44:05;98707.22;;;6.20;83.59
55066;BME280;40964;42.114;24.220;2022-10-22T03:46:31;98711.63;;;6.19;83.64
55066;BME280;40964;42.114;24.220;2022-10-22T03:48:56;98700.56;;;6.17;83.50
55066;BME280;40964;42.114;24.220;2022-10-22T03:51:21;98706.09;;;6.22;83.79
55066;BME280;40964;42.114;24.220;2022-10-22T03:53:47;98699.09;;;6.23;84.69
55066;BME280;40964;42.114;24.220;2022-10-22T03:56:13;98701.34;;;6.26;84.97
55066;BME280;40964;42.114;24.220;2022-10-22T03:58:39;98698.56;;;6.28;84.25
55066;BME280;40964;42.114;24.220;2022-10-22T04:01:06;98710.34;;;6.32;83.64
55066;BME280;40964;42.114;24.220;2022-10-22T04:03:32;98716.03;;;6.27;84.33
55066;BME280;40964;42.114;24.220;2022-10-22T04:06:08;98719.34;;;6.21;84.63
55066;BME280;40964;42.114;24.220;2022-10-22T04:08:35;98709.06;;;6.11;84.46
55066;BME280;40964;42.114;24.220;2022-10-22T04:11:01;98726.66;;;6.09;85.43
55066;BME280;40964;42.114;24.220;2022-10-22T04:13:26;98721.13;;;6.12;86.08
55066;BME280;40964;42.114;24.220;2022-10-22T04:15:52;98707.09;;;6.13;85.74
55066;BME280;40964;42.114;24.220;2022-10-22T04:18:18;98706.94;;;6.15;86.01
55066;BME280;40964;42.114;24.220;2022-10-22T04:20:44;98719.16;;;6.22;86.23
55066;BME280;40964;42.114;24.220;2022-10-22T04:23:10;98710.69;;;6.20;86.92
55066;BME280;40964;42.114;24.220;2022-10-22T04:25:36;98689.47;;;6.15;87.15
55066;BME280;40964;42.114;24.220;2022-10-22T04:28:05;98697.28;;;6.23;87.21
55066;BME280;40964;42.114;24.220;2022-10-22T04:30:31;98688.94;;;6.28;86.92
55066;BME280;40964;42.114;24.220;2022-10-22T04:32:56;98685.84;;;6.33;86.85
55066;BME280;40964;42.114;24.220;2022-10-22T04:35:22;98698.91;;;6.33;86.51
55066;BME280;40964;42.114;24.220;2022-10-22T04:37:47;98663.16;;;6.17;86.04
55066;BME280;40964;42.114;24.220;2022-10-22T04:40:13;98682.88;;;6.36;85.73
55066;BME280;40964;42.114;24.220;2022-10-22T04:42:38;98681.06;;;6.36;85.77
55066;BME280;40964;42.114;24.220;2022-10-22T04:45:04;98677.47;;;6.45;85.41
55066;BME280;40964;42.114;24.220;2022-10-22T04:47:30;98668.63;;;6.46;85.40
55066;BME280;40964;42.114;24.220;2022-10-22T04:49:55;98660.47;;;6.49;85.62
55066;BME280;40964;42.114;24.220;2022-10-22T04:52:21;98673.84;;;6.54;85.87
55066;BME280;40964;42.114;24.220;2022-10-22T04:54:46;98672.56;;;6.50;85.97
55066;BME280;40964;42.114;24.220;2022-10-22T04:57:11;98679.25;;;6.45;86.22
55066;BME280;40964;42.114;24.220;2022-10-22T04:59:39;98673.72;;;6.48;86.21
55066;BME280;40964;42.114;24.220;2022-10-22T05:02:05;98681.22;;;6.43;85.86
55066;BME280;40964;42.114;24.220;2022-10-22T05:04:30;98679.78;;;6.40;86.19
55066;BME280;40964;42.114;24.220;2022-10-22T05:06:56;98682.38;;;6.40;86.25
55066;BME280;40964;42.114;24.220;2022-10-22T05:09:22;98678.63;;;6.43;86.04
55066;BME280;40964;42.114;24.220;2022-10-22T05:11:49;98677.78;;;6.50;85.99
55066;BME280;40964;42.114;24.220;2022-10-22T05:14:17;98634.22;;;6.35;86.19
55066;BME280;40964;42.114;24.220;2022-10-22T05:16:43;98662.38;;;6.64;86.45
55066;BME280;40964;42.114;24.220;2022-10-22T05:19:16;98668.50;;;6.79;85.94
55066;BME280;40964;42.114;24.220;2022-10-22T05:21:42;98665.81;;;6.95;85.74
55066;BME280;40964;42.114;24.220;2022-10-22T05:24:08;98655.97;;;7.05;84.88
55066;BME280;40964;42.114;24.220;2022-10-22T05:26:33;98676.31;;;7.18;84.70
55066;BME280;40964;42.114;24.220;2022-10-22T05:28:59;98668.47;;;7.18;85.36
55066;BME280;40964;42.114;24.220;2022-10-22T05:31:24;98666.50;;;7.20;85.65
55066;BME280;40964;42.114;24.220;2022-10-22T05:33:50;98641.03;;;7.14;85.09
55066;BME280;40964;42.114;24.220;2022-10-22T05:36:19;98674.88;;;7.38;85.20
55066;BME280;40964;42.114;24.220;2022-10-22T05:38:45;98664.88;;;7.42;85.73
55066;BME280;40964;42.114;24.220;2022-10-22T05:41:22;98661.66;;;7.55;85.68
55066;BME280;40964;42.114;24.220;2022-10-22T05:43:48;98647.44;;;7.57;85.53
55066;BME280;40964;42.114;24.220;2022-10-22T05:46:17;98650.25;;;7.71;85.51
55066;BME280;40964;42.114;24.220;2022-10-22T05:48:43;98670.94;;;7.80;85.00
55066;BME280;40964;42.114;24.220;2022-10-22T05:51:12;98667.94;;;7.91;84.51
55066;BME280;40964;42.114;24.220;2022-10-22T05:53:40;98664.56;;;7.97;83.38
55066;BME280;40964;42.114;24.220;2022-10-22T05:56:10;98673.28;;;8.13;82.90
55066;BME280;40964;42.114;24.220;2022-10-22T05:58:36;98666.69;;;8.32;83.39
55066;BME280;40964;42.114;24.220;2022-10-22T06:01:11;98673.22;;;8.50;82.24
55066;BME280;40964;42.114;24.220;2022-10-22T06:03:37;98672.34;;;8.58;82.48
55066;BME280;40964;42.114;24.220;2022-10-22T06:08:45;98662.09;;;8.78;81.11
55066;BME280;40964;42.114;24.220;2022-10-22T06:11:11;98652.38;;;8.93;80.09
55066;BME280;40964;42.114;24.220;2022-10-22T06:13:36;98656.16;;;9.05;78.95
55066;BME280;40964;42.114;24.220;2022-10-22T06:16:02;98643.91;;;9.13;79.26
55066;BME280;40964;42.114;24.220;2022-10-22T06:18:28;98649.06;;;9.21;78.17
55066;BME280;40964;42.114;24.220;2022-10-22T06:20:53;98655.53;;;9.25;78.39
55066;BME280;40964;42.114;24.220;2022-10-22T06:23:19;98664.22;;;9.25;79.38
55066;BME280;40964;42.114;24.220;2022-10-22T06:25:54;98666.00;;;9.18;78.80
55066;BME280;40964;42.114;24.220;2022-10-22T06:28:20;98680.16;;;9.24;78.86
55066;BME280;40964;42.114;24.220;2022-10-22T06:30:45;98688.00;;;9.17;78.64
55066;BME280;40964;42.114;24.220;2022-10-22T06:33:11;98702.25;;;9.29;80.31
55066;BME280;40964;42.114;24.220;2022-10-22T06:35:36;98712.03;;;9.21;79.60
55066;BME280;40964;42.114;24.220;2022-10-22T06:38:01;98703.06;;;9.30;79.14
55066;BME280;40964;42.114;24.220;2022-10-22T06:40:27;98710.94;;;9.30;78.20
55066;BME280;40964;42.114;24.220;2022-10-22T06:42:52;98710.00;;;9.37;77.84
55066;BME280;40964;42.114;24.220;2022-10-22T06:45:18;98716.69;;;9.40;76.25
55066;BME280;40964;42.114;24.220;2022-10-22T06:47:43;98717.56;;;9.47;76.53
55066;BME280;40964;42.114;24.220;2022-10-22T06:50:09;98704.88;;;9.51;77.15
55066;BME280;40964;42.114;24.220;2022-10-22T06:52:34;98706.50;;;9.52;76.84
55066;BME280;40964;42.114;24.220;2022-10-22T06:55:00;98712.22;;;9.55;77.95
55066;BME280;40964;42.114;24.220;2022-10-22T06:57:25;98702.06;;;9.52;77.75
55066;BME280;40964;42.114;24.220;2022-10-22T06:59:51;98700.81;;;9.48;77.30
55066;BME280;40964;42.114;24.220;2022-10-22T07:02:16;98701.25;;;9.52;77.15
55066;BME280;40964;42.114;24.220;2022-10-22T07:04:42;98703.56;;;9.61;77.36
55066;BME280;40964;42.114;24.220;2022-10-22T07:07:07;98694.75;;;9.69;76.44
55066;BME280;40964;42.114;24.220;2022-10-22T07:09:33;98691.13;;;9.91;75.89
55066;BME280;40964;42.114;24.220;2022-10-22T07:11:58;98700.97;;;10.11;74.80
55066;BME280;40964;42.114;24.220;2022-10-22T07:14:24;98697.28;;;10.27;75.17
55066;BME280;40964;42.114;24.220;2022-10-22T07:16:49;98693.13;;;10.17;73.36
55066;BME280;40964;42.114;24.220;2022-10-22T07:19:15;98683.53;;;10.31;74.50
55066;BME280;40964;42.114;24.220;2022-10-22T07:21:40;98686.47;;;10.43;72.72
55066;BME280;40964;42.114;24.220;2022-10-22T07:24:06;98683.69;;;10.58;73.56
55066;BME280;40964;42.114;24.220;2022-10-22T07:26:32;98686.38;;;10.64;73.04
55066;BME280;40964;42.114;24.220;2022-10-22T07:28:58;98685.97;;;10.61;70.52
55066;BME280;40964;42.114;24.220;2022-10-22T07:31:24;98710.53;;;10.81;70.57
55066;BME280;40964;42.114;24.220;2022-10-22T07:33:50;98704.94;;;10.97;68.72
55066;BME280;40964;42.114;24.220;2022-10-22T07:36:15;98707.19;;;11.00;68.02
55066;BME280;40964;42.114;24.220;2022-10-22T07:38:45;98707.81;;;11.09;69.20
55066;BME280;40964;42.114;24.220;2022-10-22T07:41:11;98705.19;;;11.09;68.36
55066;BME280;40964;42.114;24.220;2022-10-22T07:43:37;98708.28;;;11.26;68.34
55066;BME280;40964;42.114;24.220;2022-10-22T07:46:02;98699.00;;;11.36;67.68
55066;BME280;40964;42.114;24.220;2022-10-22T07:48:28;98693.75;;;11.50;67.00
55066;BME280;40964;42.114;24.220;2022-10-22T07:50:54;98690.72;;;11.53;66.60
55066;BME280;40964;42.114;24.220;2022-10-22T07:53:21;98689.91;;;11.59;66.79
55066;BME280;40964;42.114;24.220;2022-10-22T07:55:47;98680.19;;;11.66;66.64
55066;BME280;40964;42.114;24.220;2022-10-22T07:58:13;98686.50;;;11.85;66.28
55066;BME280;40964;42.114;24.220;2022-10-22T08:00:39;98679.22;;;12.00;66.02
55066;BME280;40964;42.114;24.220;2022-10-22T08:03:05;98680.63;;;12.03;64.26
55066;BME280;40964;42.114;24.220;2022-10-22T08:05:30;98678.84;;;11.97;64.21
55066;BME280;40964;42.114;24.220;2022-10-22T08:07:55;98678.84;;;11.97;64.58
55066;BME280;40964;42.114;24.220;2022-10-22T08:10:21;98686.94;;;12.08;64.48
55066;BME280;40964;42.114;24.220;2022-10-22T08:12:47;98686.50;;;12.25;64.52
55066;BME280;40964;42.114;24.220;2022-10-22T08:15:12;98692.59;;;12.25;63.88
55066;BME280;40964;42.114;24.220;2022-10-22T08:17:37;98675.53;;;12.34;63.42
55066;BME280;40964;42.114;24.220;2022-10-22T08:20:03;98673.22;;;12.64;63.16
55066;BME280;40964;42.114;24.220;2022-10-22T08:22:29;98674.97;;;12.84;63.37
55066;BME280;40964;42.114;24.220;2022-10-22T08:24:54;98667.19;;;13.02;62.68
55066;BME280;40964;42.114;24.220;2022-10-22T08:27:20;98666.53;;;13.13;60.73
55066;BME280;40964;42.114;24.220;2022-10-22T08:29:45;98668.38;;;13.13;61.59
55066;BME280;40964;42.114;24.220;2022-10-22T08:32:11;98663.47;;;13.16;60.60
55066;BME280;40964;42.114;24.220;2022-10-22T08:34:36;98656.53;;;13.28;59.94
55066;BME280;40964;42.114;24.220;2022-10-22T08:37:05;98641.56;;;13.47;59.54
55066;BME280;40964;42.114;24.220;2022-10-22T08:39:32;98648.88;;;13.77;59.35
55066;BME280;40964;42.114;24.220;2022-10-22T08:50:15;98641.69;;;14.27;57.45
55066;BME280;40964;42.114;24.220;2022-10-22T08:52:43;98632.75;;;14.46;57.43
55066;BME280;40964;42.114;24.220;2022-10-22T08:55:13;98623.72;;;14.54;57.42
55066;BME280;40964;42.114;24.220;2022-10-22T08:58:23;98616.97;;;14.76;56.40
55066;BME280;40964;42.114;24.220;2022-10-22T09:00:57;98626.66;;;14.64;55.65
55066;BME280;40964;42.114;24.220;2022-10-22T09:03:46;98624.09;;;14.76;55.48
55066;BME280;40964;42.114;24.220;2022-10-22T09:06:17;98628.81;;;15.04;55.88
55066;BME280;40964;42.114;24.220;2022-10-22T09:08:45;98627.88;;;15.28;54.66
55066;BME280;40964;42.114;24.220;2022-10-22T09:13:36;98627.91;;;15.52;52.72
55066;BME280;40964;42.114;24.220;2022-10-22T09:19:15;98633.22;;;15.94;53.86
55066;BME280;40964;42.114;24.220;2022-10-22T09:24:54;98632.88;;;16.02;52.99
55066;BME280;40964;42.114;24.220;2022-10-22T09:27:29;98625.81;;;16.19;52.47
55066;BME280;40964;42.114;24.220;2022-10-22T09:29:55;98616.34;;;16.23;51.25
55066;BME280;40964;42.114;24.220;2022-10-22T09:32:21;98608.72;;;16.38;51.66
55066;BME280;40964;42.114;24.220;2022-10-22T09:34:48;98596.75;;;16.76;51.57
55066;BME280;40964;42.114;24.220;2022-10-22T09:37:18;98600.03;;;16.95;50.43
55066;BME280;40964;42.114;24.220;2022-10-22T09:39:46;98589.34;;;16.78;49.38
55066;BME280;40964;42.114;24.220;2022-10-22T09:42:15;98585.44;;;16.97;50.83
55066;BME280;40964;42.114;24.220;2022-10-22T09:44:41;98582.97;;;17.36;49.54
55066;BME280;40964;42.114;24.220;2022-10-22T09:50:18;98597.16;;;17.13;48.43
55066;BME280;40964;42.114;24.220;2022-10-22T09:52:57;98578.91;;;17.17;48.67
55066;BME280;40964;42.114;24.220;2022-10-22T09:55:24;98585.84;;;17.18;50.09
55066;BME280;40964;42.114;24.220;2022-10-22T09:57:55;98582.59;;;17.16;50.04
55066;BME280;40964;42.114;24.220;2022-10-22T10:00:21;98575.03;;;17.24;48.65
55066;BME280;40964;42.114;24.220;2022-10-22T10:02:52;98574.25;;;17.57;48.74
55066;BME280;40964;42.114;24.220;2022-10-22T10:05:22;98563.47;;;17.64;48.88
55066;BME280;40964;42.114;24.220;2022-10-22T10:07:48;98555.38;;;17.42;47.55
55066;BME280;40964;42.114;24.220;2022-10-22T10:10:33;98561.09;;;17.34;47.62
55066;BME280;40964;42.114;24.220;2022-10-22T10:13:21;98561.03;;;17.46;47.23
55066;BME280;40964;42.114;24.220;2022-10-22T10:21:11;98549.66;;;17.34;47.51
55066;BME280;40964;42.114;24.220;2022-10-22T10:32:16;98529.78;;;18.08;45.73
55066;BME280;40964;42.114;24.220;2022-10-22T10:37:39;98524.81;;;18.61;44.84
55066;BME280;40964;42.114;24.220;2022-10-22T10:43:00;98510.38;;;18.79;43.99
55066;BME280;40964;42.114;24.220;2022-10-22T10:45:52;98504.34;;;18.18;45.58
55066;BME280;40964;42.114;24.220;2022-10-22T10:48:26;98493.66;;;18.39;45.52
55066;BME280;40964;42.114;24.220;2022-10-22T10:54:12;98490.00;;;18.46;45.05
55066;BME280;40964;42.114;24.220;2022-10-22T10:56:50;98480.41;;;18.23;45.13
55066;BME280;40964;42.114;24.220;2022-10-22T11:05:36;98464.00;;;18.80;43.91
55066;BME280;40964;42.114;24.220;2022-10-22T11:08:08;98462.09;;;18.75;44.10
55066;BME280;40964;42.114;24.220;2022-10-22T11:10:46;98448.00;;;18.53;44.57
55066;BME280;40964;42.114;24.220;2022-10-22T11:13:30;98450.09;;;18.51;45.30
55066;BME280;40964;42.114;24.220;2022-10-22T11:16:18;98452.31;;;18.59;44.46
55066;BME280;40964;42.114;24.220;2022-10-22T11:21:48;98452.53;;;18.52;44.76
55066;BME280;40964;42.114;24.220;2022-10-22T11:28:02;98457.28;;;18.72;44.13
55066;BME280;40964;42.114;24.220;2022-10-22T11:30:33;98444.97;;;18.98;43.74
55066;BME280;40964;42.114;24.220;2022-10-22T11:33:03;98437.31;;;19.07;43.63
55066;BME280;40964;42.114;24.220;2022-10-22T11:35:34;98434.91;;;19.05;43.03
55066;BME280;40964;42.114;24.220;2022-10-22T11:38:04;98430.28;;;19.33;45.25
55066;BME280;40964;42.114;24.220;2022-10-22T11:43:08;98425.69;;;19.60;42.30
55066;BME280;40964;42.114;24.220;2022-10-22T11:45:37;98423.09;;;19.85;44.60
55066;BME280;40964;42.114;24.220;2022-10-22T11:48:15;98396.75;;;20.09;42.07
55066;BME280;40964;42.114;24.220;2022-10-22T11:50:57;98399.19;;;20.21;41.31
55066;BME280;40964;42.114;24.220;2022-10-22T11:55:51;98400.75;;;20.02;41.18
55066;BME280;40964;42.114;24.220;2022-10-22T11:58:42;98393.97;;;19.74;41.82
55066;BME280;40964;42.114;24.220;2022-10-22T12:11:45;98392.91;;;19.75;41.82
55066;BME280;40964;42.114;24.220;2022-10-22T12:14:21;98393.16;;;19.73;41.85
55066;BME280;40964;42.114;24.220;2022-10-22T12:17:15;98384.84;;;19.65;42.40
55066;BME280;40964;42.114;24.220;2022-10-22T12:19:54;98378.78;;;19.84;42.07
55066;BME280;40964;42.114;24.220;2022-10-22T12:22:25;98375.38;;;19.99;41.46
55066;BME280;40964;42.114;24.220;2022-10-22T12:24:53;98371.38;;;20.12;41.38
55066;BME280;40964;42.114;24.220;2022-10-22T12:27:27;98357.81;;;20.39;40.38
55066;BME280;40964;42.114;24.220;2022-10-22T12:29:59;98356.25;;;20.48;41.58
55066;BME280;40964;42.114;24.220;2022-10-22T12:32:37;98353.25;;;20.39;40.21
55066;BME280;40964;42.114;24.220;2022-10-22T12:35:25;98356.19;;;20.18;40.71
55066;BME280;40964;42.114;24.220;2022-10-22T12:37:53;98349.69;;;19.83;40.88
55066;BME280;40964;42.114;24.220;2022-10-22T12:40:21;98351.03;;;19.80;40.81
55066;BME280;40964;42.114;24.220;2022-10-22T12:42:48;98341.69;;;19.78;40.61
55066;BME280;40964;42.114;24.220;2022-10-22T12:45:14;98346.56;;;20.06;41.68
55066;BME280;40964;42.114;24.220;2022-10-22T12:47:44;98343.66;;;20.13;40.27
55066;BME280;40964;42.114;24.220;2022-10-22T12:50:17;98337.16;;;19.94;40.05
55066;BME280;40964;42.114;24.220;2022-10-22T12:52:43;98336.66;;;20.12;40.18
55066;BME280;40964;42.114;24.220;2022-10-22T12:55:14;98340.75;;;20.40;40.37
55066;BME280;40964;42.114;24.220;2022-10-22T12:57:41;98332.19;;;20.48;39.60
55066;BME280;40964;42.114;24.220;2022-10-22T13:00:28;98330.88;;;20.76;41.11
55066;BME280;40964;42.114;24.220;2022-10-22T13:02:58;98329.72;;;21.08;38.78
55066;BME280;40964;42.114;24.220;2022-10-22T13:05:25;98336.94;;;21.33;39.42
55066;BME280;40964;42.114;24.220;2022-10-22T13:08:00;98335.06;;;21.03;38.22
55066;BME280;40964;42.114;24.220;2022-10-22T13:10:33;98336.97;;;20.97;37.89
55066;BME280;40964;42.114;24.220;2022-10-22T13:13:00;98335.13;;;20.87;38.22
55066;BME280;40964;42.114;24.220;2022-10-22T13:23:22;98338.59;;;21.03;39.50
55066;BME280;40964;42.114;24.220;2022-10-22T13:28:26;98336.13;;;21.22;38.58
55066;BME280;40964;42.114;24.220;2022-10-22T13:31:08;98327.06;;;21.08;38.29
55066;BME280;40964;42.114;24.220;2022-10-22T13:33:40;98323.59;;;20.92;37.91
55066;BME280;40964;42.114;24.220;2022-10-22T13:36:12;98330.88;;;20.76;39.32
55066;BME280;40964;42.114;24.220;2022-10-22T13:38:38;98323.66;;;20.61;39.12
55066;BME280;40964;42.114;24.220;2022-10-22T13:41:04;98325.50;;;20.56;39.18
55066;BME280;40964;42.114;24.220;2022-10-22T13:43:29;98324.72;;;20.60;39.87
55066;BME280;40964;42.114;24.220;2022-10-22T13:45:57;98314.28;;;20.64;38.99
55066;BME280;40964;42.114;24.220;2022-10-22T13:48:24;98326.03;;;20.42;38.80
55066;BME280;40964;42.114;24.220;2022-10-22T13:50:51;98329.75;;;20.16;39.19
55066;BME280;40964;42.114;24.220;2022-10-22T13:53:20;98320.91;;;20.10;39.74
55066;BME280;40964;42.114;24.220;2022-10-22T13:55:46;98312.91;;;20.10;40.00
55066;BME280;40964;42.114;24.220;2022-10-22T13:58:19;98311.03;;;20.06;39.99
55066;BME280;40964;42.114;24.220;2022-10-22T14:00:48;98309.69;;;19.88;40.37
55066;BME280;40964;42.114;24.220;2022-10-22T14:03:16;98324.34;;;19.80;40.60
55066;BME280;40964;42.114;24.220;2022-10-22T14:05:44;98326.44;;;19.68;41.00
55066;BME280;40964;42.114;24.220;2022-10-22T14:08:14;98315.97;;;19.56;40.89
55066;BME280;40964;42.114;24.220;2022-10-22T14:10:40;98312.13;;;19.32;41.11
55066;BME280;40964;42.114;24.220;2022-10-22T14:13:09;98316.16;;;19.40;42.06
55066;BME280;40964;42.114;24.220;2022-10-22T14:15:35;98314.03;;;19.47;41.92
55066;BME280;40964;42.114;24.220;2022-10-22T14:18:03;98315.66;;;19.48;44.02
55066;BME280;40964;42.114;24.220;2022-10-22T14:20:32;98295.88;;;19.39;45.48
55066;BME280;40964;42.114;24.220;2022-10-22T14:23:18;98300.13;;;19.35;47.06
55066;BME280;40964;42.114;24.220;2022-10-22T14:25:44;98304.06;;;19.17;47.47
55066;BME280;40964;42.114;24.220;2022-10-22T14:28:10;98307.69;;;19.00;48.75
55066;BME280;40964;42.114;24.220;2022-10-22T14:30:36;98302.56;;;18.89;49.65
55066;BME280;40964;42.114;24.220;2022-10-22T14:33:27;98308.66;;;18.79;49.73
55066;BME280;40964;42.114;24.220;2022-10-22T14:35:54;98311.25;;;18.74;49.91
55066;BME280;40964;42.114;24.220;2022-10-22T14:38:19;98309.28;;;18.64;50.30
55066;BME280;40964;42.114;24.220;2022-10-22T14:40:45;98306.81;;;18.53;50.62
55066;BME280;40964;42.114;24.220;2022-10-22T14:43:21;98311.63;;;18.56;50.73
55066;BME280;40964;42.114;24.220;2022-10-22T14:45:48;98301.25;;;18.54;50.66
55066;BME280;40964;42.114;24.220;2022-10-22T14:48:13;98307.09;;;18.51;50.58